In Rescue
 
Open Full Screen Window  High Contrast Mode
Wind Gusting 00 knots
03
February 24, 2020 7:15 PM EST
Weather Information
Wind Direction
  080 °
Wind Speed
  03 kt (3 mph)
Wind Gust
  00 kt (0 mph)
Altimeter
29.83 in
Visibility
4 SM
Temperature
04° C
39° F
Dewpoint
04° C
39° F
Humidity
100%
1hr Rain Fall
00.03 in.
24hr Rain Fall
00.09 in.
Sky Condition
Overcast @ 4,000 ft
Broken @ 2,200 ft
Scattered @ 1,700 ft
MVFR

METAR KMRT 250015Z AUTO 08003KT 4SM SCT017 BKN022 OVC040 04/04 A2983 RMK AO2 P0003 T00420037

FAA Disclaimer: The data displayed is for advisory purposes only and is not to be used for flight planning or operations.